createdAt,value
2023-05-21T00:01:30.055Z,3.42
2023-05-21T00:04:15.672Z,3.00
2023-05-21T00:07:01.306Z,3.47
2023-05-21T00:09:46.666Z,3.25
2023-05-21T00:12:32.373Z,3.42
2023-05-21T00:15:17.564Z,3.45
2023-05-21T00:18:03.666Z,3.53
2023-05-21T00:20:49.040Z,3.45
2023-05-21T00:23:34.361Z,3.92
2023-05-21T00:26:21.640Z,3.70
2023-05-21T00:29:08.321Z,3.60
2023-05-21T00:31:53.849Z,3.97
2023-05-21T00:34:39.275Z,3.53
2023-05-21T00:37:24.800Z,3.72
2023-05-21T00:40:11.690Z,3.97
2023-05-21T00:42:57.349Z,3.90
2023-05-21T00:45:47.456Z,3.72
2023-05-21T00:48:33.143Z,3.70
2023-05-21T00:51:21.575Z,3.80
2023-05-21T00:54:08.252Z,4.13
2023-05-21T00:56:54.708Z,3.65
2023-05-21T00:59:40.051Z,3.63
2023-05-21T01:02:26.205Z,3.65
2023-05-21T01:05:11.713Z,3.88
2023-05-21T01:07:58.975Z,3.97
2023-05-21T01:10:44.619Z,3.88
2023-05-21T01:13:32.169Z,4.07
2023-05-21T01:16:18.057Z,4.25
2023-05-21T01:19:06.904Z,4.20
2023-05-21T01:21:57.559Z,4.97
2023-05-21T01:24:50.321Z,4.15
2023-05-21T01:27:35.826Z,4.70
2023-05-21T01:30:24.624Z,4.60
2023-05-21T01:33:41.832Z,4.65
2023-05-21T01:36:38.107Z,4.32
2023-05-21T01:39:33.408Z,4.93
2023-05-21T01:42:23.493Z,4.95
2023-05-21T01:45:09.695Z,4.53
2023-05-21T01:47:56.560Z,4.60
2023-05-21T01:50:46.419Z,4.72
2023-05-21T01:53:32.034Z,5.10
2023-05-21T01:56:17.663Z,4.55
2023-05-21T01:59:03.002Z,5.07
2023-05-21T02:01:48.269Z,5.28
2023-05-21T02:04:33.479Z,5.07
2023-05-21T02:07:19.841Z,4.95
2023-05-21T02:10:06.463Z,4.97
2023-05-21T02:12:51.710Z,4.95
2023-05-21T02:15:37.085Z,5.00
2023-05-21T02:18:23.138Z,4.90
2023-05-21T02:21:12.966Z,4.85
2023-05-21T02:23:58.467Z,4.85
2023-05-21T02:26:44.102Z,4.70
2023-05-21T02:29:29.684Z,4.80
2023-05-21T02:32:15.127Z,5.53
2023-05-21T02:35:04.795Z,5.30
2023-05-21T02:37:50.638Z,4.55
2023-05-21T02:40:36.218Z,4.78
2023-05-21T02:43:22.095Z,5.00
2023-05-21T02:46:07.823Z,5.00
2023-05-21T02:48:54.224Z,5.18
2023-05-21T02:51:39.569Z,5.43
2023-05-21T02:54:25.003Z,5.43
2023-05-21T02:57:10.486Z,5.43
2023-05-21T02:59:56.069Z,5.78
2023-05-21T03:02:43.450Z,5.13
2023-05-21T03:05:28.948Z,5.28
2023-05-21T03:08:17.001Z,4.80
2023-05-21T03:11:03.306Z,5.03
2023-05-21T03:13:48.594Z,5.47
2023-05-21T03:16:34.708Z,5.35
2023-05-21T03:19:21.017Z,5.38
2023-05-21T03:22:06.796Z,5.43
2023-05-21T03:24:55.024Z,6.30
2023-05-21T03:27:40.806Z,6.10
2023-05-21T03:30:38.410Z,5.75
2023-05-21T03:33:59.090Z,6.03
2023-05-21T03:36:48.738Z,6.07
2023-05-21T03:39:36.364Z,5.40
2023-05-21T03:42:21.611Z,5.95
2023-05-21T03:45:12.178Z,5.72
2023-05-21T03:48:15.953Z,6.18
2023-05-21T03:51:01.516Z,5.93
2023-05-21T03:53:47.044Z,5.95
2023-05-21T03:56:33.002Z,5.82
2023-05-21T03:59:18.232Z,6.13
2023-05-21T04:02:05.022Z,6.35
2023-05-21T04:04:51.781Z,6.10
2023-05-21T04:07:38.382Z,6.13
2023-05-21T04:10:23.663Z,6.00
2023-05-21T04:13:08.798Z,6.13
2023-05-21T04:15:54.492Z,5.70
2023-05-21T04:18:44.163Z,5.57
2023-05-21T04:21:32.256Z,5.50
2023-05-21T04:24:17.957Z,5.40
2023-05-21T04:29:59.866Z,5.53
2023-05-21T04:32:45.990Z,5.32
2023-05-21T04:35:31.667Z,5.20
2023-05-21T04:38:20.107Z,5.57
2023-05-21T04:41:06.882Z,5.22
2023-05-21T04:43:55.308Z,5.40
2023-05-21T04:46:46.038Z,5.38
2023-05-21T04:49:31.668Z,5.63
2023-05-21T04:52:18.431Z,5.45
2023-05-21T04:55:04.272Z,5.25
2023-05-21T04:57:49.501Z,5.80
2023-05-21T05:00:37.755Z,5.75
2023-05-21T05:03:24.413Z,5.30
2023-05-21T05:06:09.637Z,5.65
2023-05-21T05:08:55.434Z,5.40
2023-05-21T05:11:41.451Z,5.53
2023-05-21T05:14:27.410Z,5.63
2023-05-21T05:17:15.772Z,4.88
2023-05-21T05:20:02.020Z,5.30
2023-05-21T05:22:47.687Z,5.70
2023-05-21T05:25:33.358Z,5.53
2023-05-21T05:28:18.820Z,5.20
2023-05-21T05:31:04.576Z,5.32
2023-05-21T05:33:51.146Z,4.88
2023-05-21T05:36:36.506Z,4.97
2023-05-21T05:39:22.204Z,5.47
2023-05-21T05:42:08.938Z,5.00
2023-05-21T05:44:54.348Z,4.93
2023-05-21T05:47:39.588Z,5.43
2023-05-21T05:50:24.875Z,4.97
2023-05-21T05:53:13.408Z,5.20
2023-05-21T05:55:59.756Z,5.28
2023-05-21T05:58:45.388Z,5.50
2023-05-21T06:01:32.888Z,5.13
2023-05-21T06:04:18.147Z,5.07
2023-05-21T06:07:03.624Z,5.20
2023-05-21T06:09:48.840Z,5.20
2023-05-21T06:12:34.437Z,4.88
2023-05-21T06:15:20.334Z,5.10
2023-05-21T06:18:05.959Z,5.10
2023-05-21T06:20:51.206Z,5.22
2023-05-21T06:23:38.466Z,5.07
2023-05-21T06:26:27.325Z,5.18
2023-05-21T06:29:15.423Z,5.40
2023-05-21T06:32:01.728Z,5.00
2023-05-21T06:34:47.240Z,6.03
2023-05-21T06:37:32.818Z,5.00
2023-05-21T06:40:18.618Z,5.38
2023-05-21T06:43:05.350Z,5.60
2023-05-21T06:46:26.225Z,5.22
2023-05-21T06:49:14.511Z,5.80
2023-05-21T06:52:01.551Z,5.65
2023-05-21T06:54:47.057Z,5.78
2023-05-21T06:57:33.921Z,5.88
2023-05-21T07:00:19.105Z,5.60
2023-05-21T07:03:04.314Z,5.47
2023-05-21T07:05:50.177Z,5.35
2023-05-21T07:08:35.576Z,5.65
2023-05-21T07:11:22.171Z,5.22
2023-05-21T07:14:08.950Z,5.97
2023-05-21T07:16:55.266Z,5.32
2023-05-21T07:19:41.015Z,5.65
2023-05-21T07:22:28.445Z,5.70
2023-05-21T07:25:14.058Z,6.00
2023-05-21T07:27:59.484Z,5.53
2023-05-21T07:30:44.636Z,6.13
2023-05-21T07:33:34.057Z,5.85
2023-05-21T07:36:19.897Z,5.78
2023-05-21T07:39:05.518Z,5.70
2023-05-21T07:41:52.876Z,5.80
2023-05-21T07:44:39.253Z,6.22
2023-05-21T07:47:25.381Z,6.25
2023-05-21T07:50:11.884Z,6.00
2023-05-21T07:52:57.178Z,5.93
2023-05-21T07:55:47.803Z,5.93
2023-05-21T07:58:36.228Z,5.60
2023-05-21T08:01:24.072Z,6.05
2023-05-21T08:04:11.748Z,6.30
2023-05-21T08:06:57.538Z,6.05
2023-05-21T08:09:42.964Z,5.60
2023-05-21T08:12:29.352Z,6.32
2023-05-21T08:15:15.075Z,6.30
2023-05-21T08:19:31.295Z,6.10
2023-05-21T08:22:16.992Z,6.78
2023-05-21T08:25:04.717Z,6.63
2023-05-21T08:27:51.671Z,6.20
2023-05-21T08:30:38.477Z,5.93
2023-05-21T08:33:23.690Z,6.95
2023-05-21T08:36:09.114Z,6.18
2023-05-21T08:39:05.277Z,6.50
2023-05-21T08:42:09.748Z,6.68
2023-05-21T08:45:00.865Z,5.82
2023-05-21T08:47:46.944Z,6.10
2023-05-21T08:50:34.413Z,6.28
2023-05-21T08:53:28.988Z,6.22
2023-05-21T08:56:18.322Z,6.15
2023-05-21T08:59:13.472Z,6.78
2023-05-21T09:02:00.354Z,6.45
2023-05-21T09:04:57.413Z,6.60
2023-05-21T09:08:08.037Z,6.88
2023-05-21T09:11:05.334Z,7.10
2023-05-21T09:14:00.660Z,7.10
2023-05-21T09:16:57.342Z,6.80
2023-05-21T09:20:16.086Z,7.50
2023-05-21T09:23:16.719Z,7.45
2023-05-21T09:29:00.817Z,7.85
2023-05-21T09:31:46.595Z,7.93
2023-05-21T09:34:36.968Z,7.95
2023-05-21T09:40:23.776Z,7.78
2023-05-21T09:43:15.997Z,8.00
2023-05-21T09:46:02.400Z,7.43
2023-05-21T09:48:50.824Z,8.00
2023-05-21T09:51:39.705Z,9.25
2023-05-21T09:54:30.771Z,8.40
2023-05-21T09:57:16.292Z,8.43
2023-05-21T10:00:01.740Z,8.43
2023-05-21T10:02:49.804Z,8.90
2023-05-21T10:05:36.419Z,8.93
2023-05-21T10:08:27.097Z,9.45
2023-05-21T10:11:13.442Z,9.23
2023-05-21T10:14:04.456Z,10.98
2023-05-21T10:16:54.218Z,10.02
2023-05-21T10:19:41.650Z,10.25
2023-05-21T10:22:28.328Z,10.02
2023-05-21T10:25:14.230Z,9.70
2023-05-21T10:27:59.363Z,9.13
2023-05-21T10:30:46.368Z,9.90
2023-05-21T10:33:33.575Z,10.55
2023-05-21T10:36:20.736Z,9.90
2023-05-21T10:39:09.617Z,10.10
2023-05-21T10:42:13.536Z,9.90
2023-05-21T10:45:18.278Z,10.00
2023-05-21T10:48:35.604Z,11.07
2023-05-21T10:51:29.108Z,10.75
2023-05-21T10:54:50.659Z,10.13
2023-05-21T10:58:19.690Z,11.52
2023-05-21T11:01:07.272Z,9.52
2023-05-21T11:03:52.921Z,9.90
2023-05-21T11:06:38.184Z,10.07
2023-05-21T11:09:23.634Z,11.38
2023-05-21T11:14:58.390Z,10.23
2023-05-21T11:17:44.557Z,9.32
2023-05-21T11:20:35.031Z,9.25
2023-05-21T11:23:23.666Z,10.07
2023-05-21T11:26:09.337Z,9.32
2023-05-21T11:29:08.832Z,10.40
2023-05-21T11:32:05.535Z,10.07
2023-05-21T11:34:51.734Z,10.30
2023-05-21T11:37:41.523Z,9.65
2023-05-21T11:40:28.246Z,9.57
2023-05-21T11:43:13.575Z,9.35
2023-05-21T11:45:59.372Z,10.25
2023-05-21T11:48:45.059Z,9.65
2023-05-21T11:51:31.063Z,9.95
2023-05-21T11:54:17.837Z,9.50
2023-05-21T11:57:08.024Z,10.15
2023-05-21T11:59:53.626Z,9.38
2023-05-21T12:02:38.933Z,9.63
2023-05-21T12:05:24.214Z,9.52
2023-05-21T12:08:10.649Z,9.27
2023-05-21T12:11:00.352Z,8.98
2023-05-21T12:13:45.993Z,10.40
2023-05-21T12:16:32.650Z,9.50
2023-05-21T12:19:19.097Z,9.73
2023-05-21T12:22:06.070Z,9.07
2023-05-21T12:24:53.616Z,8.43
2023-05-21T12:27:39.315Z,9.57
2023-05-21T12:30:26.478Z,8.73
2023-05-21T12:33:12.144Z,10.52
2023-05-21T12:35:57.973Z,9.60
2023-05-21T12:38:45.827Z,8.82
2023-05-21T12:41:31.297Z,8.88
2023-05-21T12:44:16.666Z,9.00
2023-05-21T12:47:03.690Z,9.02
2023-05-21T12:49:49.421Z,9.73
2023-05-21T12:52:34.835Z,8.90
2023-05-21T12:55:25.326Z,9.07
2023-05-21T12:58:14.324Z,8.77
2023-05-21T13:00:59.569Z,9.82
2023-05-21T13:03:45.228Z,9.07
2023-05-21T13:06:31.465Z,8.70
2023-05-21T13:09:16.829Z,9.52
2023-05-21T13:12:02.035Z,9.80
2023-05-21T13:14:47.304Z,9.40
2023-05-21T13:17:32.525Z,9.57
2023-05-21T13:20:21.709Z,9.70
2023-05-21T13:23:09.824Z,10.10
2023-05-21T13:25:56.708Z,9.10
2023-05-21T13:28:42.728Z,8.38
2023-05-21T13:31:28.602Z,8.38
2023-05-21T13:34:14.157Z,9.07
2023-05-21T13:36:59.608Z,8.82
2023-05-21T13:39:44.892Z,8.98
2023-05-21T13:42:29.944Z,8.45
2023-05-21T13:45:19.236Z,8.50
2023-05-21T13:48:05.352Z,9.15
2023-05-21T13:50:50.651Z,8.70
2023-05-21T13:53:36.144Z,8.68
2023-05-21T13:56:22.145Z,9.20
2023-05-21T13:59:07.771Z,8.65
2023-05-21T14:01:53.117Z,8.38
2023-05-21T14:04:39.590Z,8.95
2023-05-21T14:07:24.979Z,9.90
2023-05-21T14:10:11.230Z,8.82
2023-05-21T14:13:01.685Z,8.75
2023-05-21T14:15:56.794Z,9.02
2023-05-21T14:18:41.923Z,8.77
2023-05-21T14:21:27.234Z,8.70
2023-05-21T14:24:12.499Z,8.60
2023-05-21T14:26:57.951Z,8.25
2023-05-21T14:29:43.322Z,8.65
2023-05-21T14:32:28.621Z,9.00
2023-05-21T14:35:13.884Z,9.20
2023-05-21T14:37:59.218Z,8.95
2023-05-21T14:40:44.772Z,7.90
2023-05-21T14:43:30.110Z,8.52
2023-05-21T14:46:15.297Z,8.98
2023-05-21T14:49:00.895Z,9.23
2023-05-21T14:51:47.530Z,8.60
2023-05-21T14:54:33.063Z,8.05
2023-05-21T14:57:18.333Z,9.00
2023-05-21T15:00:04.331Z,8.57
2023-05-21T15:02:49.883Z,9.02
2023-05-21T15:05:36.086Z,8.95
2023-05-21T15:08:21.504Z,8.18
2023-05-21T15:11:09.804Z,8.13
2023-05-21T15:13:55.333Z,8.68
2023-05-21T15:16:40.747Z,7.75
2023-05-21T15:19:25.979Z,8.90
2023-05-21T15:22:11.179Z,8.27
2023-05-21T15:24:56.431Z,7.93
2023-05-21T15:27:41.734Z,7.80
2023-05-21T15:30:27.385Z,7.15
2023-05-21T15:33:13.043Z,8.07
2023-05-21T15:35:58.481Z,8.00
2023-05-21T15:38:43.854Z,8.52
2023-05-21T15:41:29.663Z,8.07
2023-05-21T15:44:15.424Z,7.40
2023-05-21T15:47:01.118Z,8.30
2023-05-21T15:49:46.342Z,8.43
2023-05-21T15:52:31.575Z,7.55
2023-05-21T15:55:16.943Z,8.18
2023-05-21T15:58:03.897Z,8.30
2023-05-21T16:00:49.372Z,8.23
2023-05-21T16:03:35.320Z,8.10
2023-05-21T16:06:20.898Z,8.45
2023-05-21T16:09:07.152Z,8.00
2023-05-21T16:11:52.684Z,8.02
2023-05-21T16:14:37.869Z,8.63
2023-05-21T16:17:24.005Z,7.50
2023-05-21T16:20:09.996Z,8.07
2023-05-21T16:22:55.355Z,8.05
2023-05-21T16:25:44.266Z,8.05
2023-05-21T16:28:30.268Z,6.93
2023-05-21T16:31:16.073Z,8.48
2023-05-21T16:34:04.767Z,8.85
2023-05-21T16:36:51.634Z,8.38
2023-05-21T16:39:37.441Z,9.07
2023-05-21T16:42:22.706Z,8.02
2023-05-21T16:45:08.893Z,8.85
2023-05-21T16:47:54.460Z,8.40
2023-05-21T16:50:40.798Z,8.35
2023-05-21T16:53:27.025Z,8.15
2023-05-21T16:56:15.548Z,9.13
2023-05-21T16:59:01.027Z,8.80
2023-05-21T17:01:46.542Z,8.57
2023-05-21T17:04:31.630Z,8.00
2023-05-21T17:07:19.727Z,8.45
2023-05-21T17:10:06.335Z,8.68
2023-05-21T17:12:54.706Z,8.35
2023-05-21T17:15:39.944Z,8.55
2023-05-21T17:18:25.339Z,7.95
2023-05-21T17:21:10.682Z,8.63
2023-05-21T17:23:56.078Z,9.27
2023-05-21T17:26:41.624Z,8.02
2023-05-21T17:29:27.074Z,8.68
2023-05-21T17:32:12.372Z,8.57
2023-05-21T17:34:57.820Z,8.63
2023-05-21T17:37:43.065Z,8.65
2023-05-21T17:40:28.181Z,7.70
2023-05-21T17:43:13.662Z,7.82
2023-05-21T17:45:59.003Z,8.80
2023-05-21T17:48:45.272Z,8.50
2023-05-21T17:51:31.468Z,8.05
2023-05-21T17:54:17.033Z,7.65
2023-05-21T17:57:02.681Z,7.85
2023-05-21T17:59:48.087Z,8.30
2023-05-21T18:02:33.470Z,7.80
2023-05-21T18:05:18.800Z,8.40
2023-05-21T18:08:04.692Z,8.80
2023-05-21T18:10:50.234Z,8.13
2023-05-21T18:13:36.078Z,8.43
2023-05-21T18:16:21.509Z,8.45
2023-05-21T18:19:06.895Z,7.80
2023-05-21T18:21:52.055Z,8.02
2023-05-21T18:24:38.314Z,8.18
2023-05-21T18:27:23.711Z,8.13
2023-05-21T18:30:09.710Z,8.07
2023-05-21T18:32:55.412Z,8.77
2023-05-21T18:35:44.557Z,8.20
2023-05-21T18:38:30.009Z,7.95
2023-05-21T18:41:15.461Z,8.05
2023-05-21T18:44:04.134Z,7.53
2023-05-21T18:46:51.308Z,7.85
2023-05-21T18:49:36.844Z,8.32
2023-05-21T18:52:22.198Z,8.32
2023-05-21T18:55:08.214Z,8.00
2023-05-21T18:57:55.695Z,8.05
2023-05-21T19:00:43.278Z,8.20
2023-05-21T19:03:28.836Z,8.57
2023-05-21T19:06:14.060Z,7.82
2023-05-21T19:08:59.292Z,8.38
2023-05-21T19:11:44.701Z,8.27
2023-05-21T19:14:30.006Z,7.88
2023-05-21T19:17:15.409Z,8.40
2023-05-21T19:20:00.837Z,8.63
2023-05-21T19:22:46.106Z,8.25
2023-05-21T19:25:31.771Z,8.70
2023-05-21T19:28:17.528Z,7.82
2023-05-21T19:31:03.041Z,8.32
2023-05-21T19:33:48.577Z,8.00
2023-05-21T19:36:48.505Z,9.05
2023-05-21T19:39:39.887Z,8.93
2023-05-21T19:42:25.295Z,9.32
2023-05-21T19:45:11.592Z,9.32
2023-05-21T19:47:57.503Z,9.70
2023-05-21T19:50:42.760Z,9.18
2023-05-21T19:53:28.338Z,9.20
2023-05-21T19:56:14.190Z,9.45
2023-05-21T19:58:59.786Z,9.18
2023-05-21T20:01:45.951Z,9.80
2023-05-21T20:04:32.433Z,10.10
2023-05-21T20:07:17.841Z,10.55
2023-05-21T20:10:03.365Z,9.77
2023-05-21T20:12:48.633Z,10.18
2023-05-21T20:15:34.286Z,9.50
2023-05-21T20:18:22.616Z,9.48
2023-05-21T20:21:08.846Z,9.27
2023-05-21T20:23:54.055Z,10.05
2023-05-21T20:26:39.874Z,10.38
2023-05-21T20:29:25.612Z,10.05
2023-05-21T20:32:11.023Z,10.23
2023-05-21T20:35:03.216Z,10.25
2023-05-21T20:37:49.182Z,10.13
2023-05-21T20:40:34.535Z,10.60
2023-05-21T20:43:20.038Z,10.85
2023-05-21T20:46:05.815Z,11.18
2023-05-21T20:48:51.458Z,10.07
2023-05-21T20:51:36.732Z,10.50
2023-05-21T20:54:22.250Z,10.43
2023-05-21T20:57:09.095Z,10.98
2023-05-21T20:59:54.796Z,10.35
2023-05-21T21:02:40.559Z,10.90
2023-05-21T21:05:26.097Z,11.55
2023-05-21T21:08:12.339Z,12.05
2023-05-21T21:10:57.602Z,12.20
2023-05-21T21:13:42.938Z,11.70
2023-05-21T21:16:28.350Z,12.23
2023-05-21T21:19:13.657Z,12.90
2023-05-21T21:21:59.073Z,13.00
2023-05-21T21:24:44.566Z,12.30
2023-05-21T21:27:30.149Z,12.52
2023-05-21T21:30:15.670Z,12.90
2023-05-21T21:33:01.155Z,11.90
2023-05-21T21:35:46.526Z,12.45
2023-05-21T21:38:31.827Z,11.60
2023-05-21T21:41:17.167Z,12.00
2023-05-21T21:44:02.402Z,12.43
2023-05-21T21:46:48.023Z,13.18
2023-05-21T21:49:34.417Z,13.57
2023-05-21T21:52:20.664Z,13.65
2023-05-21T21:55:09.529Z,13.88
2023-05-21T21:57:55.053Z,13.60
2023-05-21T22:00:40.894Z,13.80
2023-05-21T22:03:26.476Z,13.50
2023-05-21T22:06:11.770Z,14.85
2023-05-21T22:08:57.014Z,15.07
2023-05-21T22:11:42.694Z,15.13
2023-05-21T22:14:28.403Z,15.25
2023-05-21T22:17:17.936Z,14.45
2023-05-21T22:20:05.864Z,13.68
2023-05-21T22:22:53.047Z,13.23
2023-05-21T22:25:41.230Z,13.15
2023-05-21T22:28:26.670Z,13.40
2023-05-21T22:31:11.965Z,14.18
2023-05-21T22:33:58.058Z,14.38
2023-05-21T22:36:44.730Z,13.38
2023-05-21T22:39:29.941Z,14.40
2023-05-21T22:42:15.410Z,13.98
2023-05-21T22:45:01.860Z,14.10
2023-05-21T22:47:48.156Z,13.27
2023-05-21T22:50:33.899Z,14.75
2023-05-21T22:53:19.404Z,14.70
2023-05-21T22:56:05.142Z,13.82
2023-05-21T22:58:51.213Z,14.50
2023-05-21T23:01:38.043Z,14.07
2023-05-21T23:04:35.559Z,13.90
2023-05-21T23:10:14.163Z,14.13
2023-05-21T23:12:59.401Z,14.40
2023-05-21T23:15:45.723Z,14.68
2023-05-21T23:18:31.278Z,15.43
2023-05-21T23:21:17.557Z,15.07
2023-05-21T23:24:03.364Z,14.55
2023-05-21T23:26:49.159Z,15.13
2023-05-21T23:29:34.810Z,14.35
2023-05-21T23:32:20.044Z,14.57
2023-05-21T23:35:06.049Z,13.95
2023-05-21T23:37:51.452Z,15.20
2023-05-21T23:40:37.198Z,14.50
2023-05-21T23:43:22.746Z,14.27
2023-05-21T23:46:08.060Z,14.48
2023-05-21T23:48:53.512Z,13.90
2023-05-21T23:51:39.832Z,14.13
2023-05-21T23:54:25.330Z,14.45
2023-05-21T23:57:11.483Z,14.65
2023-05-21T23:59:57.281Z,14.73
